createdAt,value
2019-04-07T00:00:12.228Z,10.62
2019-04-07T00:02:40.782Z,10.59
2019-04-07T00:05:12.520Z,10.58
2019-04-07T00:07:39.091Z,10.55
2019-04-07T00:10:08.412Z,10.52
2019-04-07T00:12:36.952Z,10.52
2019-04-07T00:15:06.961Z,10.52
2019-04-07T00:17:35.064Z,10.50
2019-04-07T00:20:04.197Z,10.51
2019-04-07T00:22:32.403Z,10.51
2019-04-07T00:25:00.751Z,10.50
2019-04-07T00:27:28.855Z,10.50
2019-04-07T00:29:57.899Z,10.50
2019-04-07T00:32:26.274Z,10.53
2019-04-07T00:34:54.306Z,10.54
2019-04-07T00:37:22.985Z,10.54
2019-04-07T00:39:51.569Z,10.57
2019-04-07T00:42:20.334Z,10.60
2019-04-07T00:44:48.594Z,10.59
2019-04-07T00:47:16.557Z,10.60
2019-04-07T00:49:45.078Z,10.61
2019-04-07T00:52:14.517Z,10.62
2019-04-07T00:54:42.640Z,10.64
2019-04-07T00:57:10.966Z,10.64
2019-04-07T00:59:39.699Z,10.66
2019-04-07T01:02:07.849Z,10.66
2019-04-07T01:04:36.448Z,10.68
2019-04-07T01:07:04.861Z,10.66
2019-04-07T01:09:34.081Z,10.70
2019-04-07T01:12:02.853Z,10.72
2019-04-07T01:14:31.436Z,10.72
2019-04-07T01:17:00.329Z,10.75
2019-04-07T01:19:29.030Z,10.77
2019-04-07T01:21:57.035Z,10.80
2019-04-07T01:24:25.222Z,10.82
2019-04-07T01:26:53.712Z,10.81
2019-04-07T01:29:22.112Z,10.80
2019-04-07T01:31:50.617Z,10.79
2019-04-07T01:34:18.740Z,10.81
2019-04-07T01:36:47.138Z,10.82
2019-04-07T01:39:16.887Z,10.82
2019-04-07T01:42:04.962Z,10.84
2019-04-07T01:44:55.095Z,10.83
2019-04-07T01:47:32.089Z,10.84
2019-04-07T01:50:18.594Z,10.82
2019-04-07T01:52:54.738Z,10.82
2019-04-07T01:55:52.084Z,10.79
2019-04-07T01:58:55.075Z,10.81
2019-04-07T02:01:38.501Z,10.81
2019-04-07T02:04:35.826Z,10.82
2019-04-07T02:07:11.895Z,10.81
2019-04-07T02:09:58.642Z,10.83
2019-04-07T02:12:49.791Z,10.84
2019-04-07T02:15:42.207Z,10.84
2019-04-07T02:18:22.470Z,10.87
2019-04-07T02:21:00.906Z,10.88
2019-04-07T02:24:01.044Z,10.87
2019-04-07T02:26:46.435Z,10.86
2019-04-07T02:29:32.471Z,10.89
2019-04-07T02:32:27.580Z,10.89
2019-04-07T02:35:07.575Z,10.89
2019-04-07T02:37:50.368Z,10.89
2019-04-07T02:40:31.287Z,10.92
2019-04-07T02:43:12.445Z,10.96
2019-04-07T02:46:09.676Z,11.00
2019-04-07T02:48:59.922Z,11.03
2019-04-07T02:51:42.169Z,11.04
2019-04-07T02:54:43.232Z,11.06
2019-04-07T02:57:36.384Z,11.09
2019-04-07T03:00:22.886Z,11.09
2019-04-07T03:03:17.148Z,11.09
2019-04-07T03:06:02.414Z,11.07
2019-04-07T03:08:59.411Z,11.07
2019-04-07T03:11:42.913Z,11.07
2019-04-07T03:14:31.568Z,11.10
2019-04-07T03:17:12.281Z,11.11
2019-04-07T03:20:03.063Z,11.13
2019-04-07T03:22:53.274Z,11.16
2019-04-07T03:25:49.967Z,11.13
2019-04-07T03:28:49.453Z,11.10
2019-04-07T03:31:29.172Z,11.07
2019-04-07T03:34:08.956Z,11.01
2019-04-07T03:37:16.913Z,10.99
2019-04-07T03:39:42.361Z,10.99
2019-04-07T03:42:26.120Z,10.99
2019-04-07T03:45:00.673Z,10.99
2019-04-07T03:47:42.094Z,11.00
2019-04-07T03:50:15.072Z,11.03
2019-04-07T03:53:15.783Z,11.07
2019-04-07T03:55:53.464Z,11.09
2019-04-07T03:58:39.985Z,11.09
2019-04-07T04:01:31.023Z,11.09
2019-04-07T04:04:19.040Z,11.07
2019-04-07T04:07:28.426Z,11.05
2019-04-07T04:09:52.567Z,11.04
2019-04-07T04:12:34.290Z,11.05
2019-04-07T04:15:08.818Z,11.06
2019-04-07T04:17:37.066Z,11.06
2019-04-07T04:20:06.234Z,11.03
2019-04-07T04:22:34.263Z,11.02
2019-04-07T04:25:02.906Z,10.96
2019-04-07T04:27:31.502Z,10.92
2019-04-07T04:29:59.535Z,10.88
2019-04-07T04:32:28.831Z,10.88
2019-04-07T04:34:57.524Z,10.86
2019-04-07T04:37:36.184Z,10.84
2019-04-07T04:39:55.883Z,10.84
2019-04-07T04:42:25.035Z,10.81
2019-04-07T04:44:54.292Z,10.79
2019-04-07T04:47:23.230Z,10.77
2019-04-07T04:49:52.663Z,10.75
2019-04-07T04:52:22.055Z,10.72
2019-04-07T04:54:50.051Z,10.70
2019-04-07T04:57:18.085Z,10.70
2019-04-07T04:59:46.591Z,10.69
2019-04-07T05:02:14.723Z,10.71
2019-04-07T05:04:42.724Z,10.70
2019-04-07T05:07:11.314Z,10.68
2019-04-07T05:09:46.219Z,10.68
2019-04-07T05:12:10.087Z,10.66
2019-04-07T05:14:38.802Z,10.64
2019-04-07T05:17:07.386Z,10.62
2019-04-07T05:19:35.631Z,10.64
2019-04-07T05:22:03.812Z,10.65
2019-04-07T05:24:32.578Z,10.68
2019-04-07T05:27:01.006Z,10.70
2019-04-07T05:29:29.122Z,10.71
2019-04-07T05:31:57.241Z,10.73
2019-04-07T05:34:25.730Z,10.75
2019-04-07T05:36:54.505Z,10.77
2019-04-07T05:39:22.995Z,10.80
2019-04-07T05:41:51.035Z,10.81
2019-04-07T05:44:19.028Z,10.83
2019-04-07T05:46:49.569Z,10.87
2019-04-07T05:49:18.634Z,10.90
2019-04-07T05:51:47.983Z,10.93
2019-04-07T05:54:18.078Z,10.99
2019-04-07T05:56:46.004Z,11.04
2019-04-07T05:59:14.989Z,11.10
2019-04-07T06:01:44.388Z,11.15
2019-04-07T06:04:16.743Z,11.20
2019-04-07T06:06:42.778Z,11.28
2019-04-07T06:09:11.214Z,11.36
2019-04-07T06:11:40.041Z,11.41
2019-04-07T06:14:08.498Z,11.45
2019-04-07T06:16:36.740Z,11.51
2019-04-07T06:19:08.099Z,11.57
2019-04-07T06:21:36.625Z,11.64
2019-04-07T06:24:04.839Z,11.70
2019-04-07T06:26:33.102Z,11.75
2019-04-07T06:29:01.615Z,11.81
2019-04-07T06:31:32.808Z,11.88
2019-04-07T06:33:59.892Z,11.95
2019-04-07T06:36:28.748Z,12.02
2019-04-07T06:38:57.103Z,12.08
2019-04-07T06:41:30.116Z,12.15
2019-04-07T06:44:08.299Z,12.23
2019-04-07T06:46:34.093Z,12.34
2019-04-07T06:49:12.341Z,12.43
2019-04-07T06:51:46.950Z,12.51
2019-04-07T06:54:40.583Z,12.54
2019-04-07T06:57:28.334Z,12.58
2019-04-07T07:00:15.165Z,12.61
2019-04-07T07:03:06.118Z,12.65
2019-04-07T07:06:05.843Z,12.69
2019-04-07T07:08:55.655Z,12.72
2019-04-07T07:11:38.451Z,12.75
2019-04-07T07:14:34.921Z,12.79
2019-04-07T07:17:23.108Z,12.83
2019-04-07T07:20:05.645Z,12.90
2019-04-07T07:22:41.839Z,12.95
2019-04-07T07:25:12.372Z,12.99
2019-04-07T07:27:42.750Z,13.00
2019-04-07T07:30:12.052Z,13.05
2019-04-07T07:32:40.965Z,13.09
2019-04-07T07:35:12.706Z,13.13
2019-04-07T07:37:40.175Z,13.19
2019-04-07T07:40:09.823Z,13.27
2019-04-07T07:42:38.246Z,13.34
2019-04-07T07:45:10.921Z,13.42
2019-04-07T07:47:37.226Z,13.51
2019-04-07T07:50:07.757Z,13.62
2019-04-07T07:52:35.715Z,13.74
2019-04-07T07:55:05.834Z,13.83
2019-04-07T07:57:33.924Z,13.92
2019-04-07T08:00:04.567Z,14.03
2019-04-07T08:02:32.172Z,14.13
2019-04-07T08:05:00.651Z,14.27
2019-04-07T08:07:28.906Z,14.38
2019-04-07T08:09:58.075Z,14.52
2019-04-07T08:12:28.078Z,14.65
2019-04-07T08:14:57.731Z,14.77
2019-04-07T08:17:27.057Z,14.90
2019-04-07T08:19:55.790Z,15.05
2019-04-07T08:22:30.696Z,15.19
2019-04-07T08:24:54.554Z,15.30
2019-04-07T08:27:23.958Z,15.44
2019-04-07T08:29:53.514Z,15.55
2019-04-07T08:32:22.645Z,15.67
2019-04-07T08:34:51.600Z,15.79
2019-04-07T08:37:20.048Z,15.92
2019-04-07T08:39:48.600Z,16.03
2019-04-07T08:42:18.786Z,16.10
2019-04-07T08:44:47.358Z,16.16
2019-04-07T08:47:20.799Z,16.19
2019-04-07T08:49:47.019Z,16.20
2019-04-07T08:52:15.344Z,16.21
2019-04-07T08:54:43.410Z,16.24
2019-04-07T08:57:11.452Z,16.23
2019-04-07T08:59:43.015Z,16.22
2019-04-07T09:02:11.382Z,16.22
2019-04-07T09:04:41.286Z,16.25
2019-04-07T09:07:10.294Z,16.23
2019-04-07T09:09:44.994Z,16.17
2019-04-07T09:12:09.290Z,16.10
2019-04-07T09:14:39.703Z,16.13
2019-04-07T09:17:35.449Z,16.09
2019-04-07T09:20:10.906Z,16.05
2019-04-07T09:23:20.202Z,15.99
2019-04-07T09:26:12.028Z,15.90
2019-04-07T09:28:51.461Z,15.84
2019-04-07T09:31:37.345Z,15.83
2019-04-07T09:34:26.253Z,15.90
2019-04-07T09:37:13.539Z,15.92
2019-04-07T09:39:59.140Z,15.98
2019-04-07T09:43:00.227Z,16.04
2019-04-07T09:45:45.876Z,16.08
2019-04-07T09:48:34.461Z,16.12
2019-04-07T09:51:25.454Z,16.15
2019-04-07T09:54:01.363Z,16.21
2019-04-07T09:56:40.677Z,16.26
2019-04-07T09:59:20.673Z,16.30
2019-04-07T10:02:11.471Z,16.40
2019-04-07T10:05:02.016Z,16.47
2019-04-07T10:07:59.370Z,16.56
2019-04-07T10:10:49.443Z,16.62
2019-04-07T10:13:36.780Z,16.67
2019-04-07T10:16:24.625Z,16.72
2019-04-07T10:19:11.043Z,16.79
2019-04-07T10:22:07.318Z,16.95
2019-04-07T10:24:59.097Z,17.12
2019-04-07T10:27:40.705Z,17.29
2019-04-07T10:30:36.007Z,17.41
2019-04-07T10:33:24.378Z,17.52
2019-04-07T10:36:15.921Z,17.62
2019-04-07T10:39:03.130Z,17.73
2019-04-07T10:41:55.263Z,17.91
2019-04-07T10:44:42.343Z,18.03
2019-04-07T10:47:30.412Z,18.07
2019-04-07T10:50:18.555Z,18.04
2019-04-07T10:52:56.180Z,18.15
2019-04-07T10:55:49.700Z,18.24
2019-04-07T10:58:27.931Z,18.39
2019-04-07T11:01:06.381Z,18.52
2019-04-07T11:04:03.941Z,18.68
2019-04-07T11:06:59.392Z,18.89
2019-04-07T11:09:45.188Z,19.13
2019-04-07T11:12:41.241Z,19.44
2019-04-07T11:15:28.076Z,19.73
2019-04-07T11:18:07.635Z,20.02
2019-04-07T11:20:57.234Z,20.26
2019-04-07T11:23:36.491Z,20.53
2019-04-07T11:26:24.124Z,20.80
2019-04-07T11:29:12.141Z,20.93
2019-04-07T11:32:00.379Z,21.15
2019-04-07T11:34:51.384Z,21.44
2019-04-07T11:37:38.634Z,21.77
2019-04-07T11:40:25.219Z,22.20
2019-04-07T11:43:20.740Z,22.65
2019-04-07T11:46:07.120Z,23.07
2019-04-07T11:48:45.097Z,23.50
2019-04-07T11:51:35.857Z,23.92
2019-04-07T11:54:16.482Z,24.27
2019-04-07T11:57:06.985Z,24.58
2019-04-07T11:59:54.190Z,24.85
2019-04-07T12:02:33.074Z,25.07
2019-04-07T12:05:15.901Z,25.12
2019-04-07T12:08:03.211Z,25.10
2019-04-07T12:11:01.719Z,25.14
2019-04-07T12:13:44.898Z,25.16
2019-04-07T12:16:35.298Z,24.74
2019-04-07T12:19:35.263Z,24.11
2019-04-07T12:22:19.429Z,23.66
2019-04-07T12:25:07.162Z,23.40
2019-04-07T12:28:14.616Z,23.20
2019-04-07T12:30:45.168Z,22.91
2019-04-07T12:33:32.937Z,22.78
2019-04-07T12:36:11.823Z,22.76
2019-04-07T12:38:58.569Z,22.66
2019-04-07T12:41:34.550Z,22.50
2019-04-07T12:44:25.437Z,22.23
2019-04-07T12:47:22.495Z,22.03
2019-04-07T12:50:10.581Z,21.72
2019-04-07T12:53:02.195Z,21.49
2019-04-07T12:55:49.947Z,21.15
2019-04-07T12:58:31.241Z,20.88
2019-04-07T13:01:28.184Z,20.79
2019-04-07T13:04:19.030Z,20.62
2019-04-07T13:07:04.386Z,20.51
2019-04-07T13:09:54.882Z,20.43
2019-04-07T13:12:45.479Z,20.40
2019-04-07T13:15:31.452Z,20.30
2019-04-07T13:18:11.816Z,20.15
2019-04-07T13:20:56.540Z,20.05
2019-04-07T13:23:39.847Z,20.04
2019-04-07T13:26:32.371Z,19.95
2019-04-07T13:29:23.690Z,20.01
2019-04-07T13:32:17.523Z,20.01
2019-04-07T13:35:05.859Z,20.00
2019-04-07T13:38:02.797Z,19.95
2019-04-07T13:41:03.008Z,19.93
2019-04-07T13:43:44.948Z,19.90
2019-04-07T13:46:44.997Z,19.80
2019-04-07T13:49:31.808Z,19.84
2019-04-07T13:52:31.254Z,19.79
2019-04-07T13:55:10.425Z,19.76
2019-04-07T13:57:55.638Z,19.68
2019-04-07T14:00:35.087Z,19.68
2019-04-07T14:03:23.347Z,19.58
2019-04-07T14:06:00.018Z,19.44
2019-04-07T14:08:49.499Z,19.38
2019-04-07T14:12:04.241Z,19.26
2019-04-07T14:14:48.370Z,19.20
2019-04-07T14:17:45.017Z,19.06
2019-04-07T14:20:38.733Z,18.89
2019-04-07T14:23:25.254Z,18.79
2019-04-07T14:26:25.769Z,18.71
2019-04-07T14:29:12.030Z,18.64
2019-04-07T14:31:53.527Z,18.49
2019-04-07T14:34:44.357Z,18.39
2019-04-07T14:37:31.842Z,18.30
2019-04-07T14:40:26.255Z,18.11
2019-04-07T14:43:09.790Z,17.92
2019-04-07T14:45:57.966Z,17.69
2019-04-07T14:48:45.759Z,17.54
2019-04-07T14:51:31.852Z,17.47
2019-04-07T14:54:29.243Z,17.40
2019-04-07T14:57:09.447Z,17.33
2019-04-07T14:59:47.411Z,17.28
2019-04-07T15:02:15.796Z,17.28
2019-04-07T15:04:54.467Z,17.29
2019-04-07T15:07:35.105Z,17.24
2019-04-07T15:10:25.281Z,17.15
2019-04-07T15:13:05.700Z,17.03
2019-04-07T15:15:36.859Z,16.96
2019-04-07T15:18:05.116Z,16.89
2019-04-07T15:20:34.344Z,16.78
2019-04-07T15:23:02.908Z,16.72
2019-04-07T15:25:31.347Z,16.60
2019-04-07T15:28:00.374Z,16.50
2019-04-07T15:30:29.986Z,16.46
2019-04-07T15:33:01.237Z,16.42
2019-04-07T15:35:29.623Z,16.39
2019-04-07T15:37:57.867Z,16.32
2019-04-07T15:40:26.004Z,16.25
2019-04-07T15:42:54.131Z,16.23
2019-04-07T15:45:23.394Z,16.23
2019-04-07T15:47:53.872Z,16.18
2019-04-07T15:50:22.577Z,16.06
2019-04-07T15:52:50.873Z,15.99
2019-04-07T15:55:19.689Z,15.97
2019-04-07T15:57:48.060Z,15.91
2019-04-07T16:00:16.766Z,15.74
2019-04-07T16:02:46.024Z,15.68
2019-04-07T16:05:14.813Z,15.51
2019-04-07T16:07:43.818Z,15.33
2019-04-07T16:10:15.085Z,15.20
2019-04-07T16:12:49.631Z,15.12
2019-04-07T16:15:16.518Z,15.10
2019-04-07T16:17:47.376Z,15.00
2019-04-07T16:20:23.100Z,14.95
2019-04-07T16:22:49.010Z,14.92
2019-04-07T16:25:16.946Z,14.90
2019-04-07T16:27:45.722Z,14.87
2019-04-07T16:30:17.367Z,14.86
2019-04-07T16:32:44.954Z,14.81
2019-04-07T16:35:16.374Z,14.74
2019-04-07T16:37:44.522Z,14.69
2019-04-07T16:40:14.385Z,14.61
2019-04-07T16:42:48.891Z,14.54
2019-04-07T16:45:16.406Z,14.50
2019-04-07T16:47:45.454Z,14.48
2019-04-07T16:50:18.059Z,14.45
2019-04-07T16:52:47.143Z,14.40
2019-04-07T16:55:41.755Z,14.35
2019-04-07T16:58:11.619Z,14.32
2019-04-07T17:00:40.259Z,14.26
2019-04-07T17:03:09.725Z,14.24
2019-04-07T17:05:39.656Z,14.20
2019-04-07T17:08:08.665Z,14.19
2019-04-07T17:10:37.230Z,14.18
2019-04-07T17:13:17.059Z,14.16
2019-04-07T17:15:39.455Z,14.13
2019-04-07T17:18:09.919Z,14.12
2019-04-07T17:20:42.855Z,14.11
2019-04-07T17:23:18.563Z,14.10
2019-04-07T17:25:45.145Z,14.09
2019-04-07T17:28:14.155Z,14.06
2019-04-07T17:30:43.293Z,14.01
2019-04-07T17:33:12.347Z,13.96
2019-04-07T17:35:43.253Z,13.93
2019-04-07T17:38:12.248Z,13.89
2019-04-07T17:40:47.221Z,13.84
2019-04-07T17:43:49.419Z,13.82
2019-04-07T17:46:40.704Z,13.81
2019-04-07T17:49:30.900Z,13.78
2019-04-07T17:52:16.796Z,13.72
2019-04-07T17:55:21.894Z,13.64
2019-04-07T17:58:11.569Z,13.61
2019-04-07T18:01:06.231Z,13.53
2019-04-07T18:03:56.628Z,13.54
2019-04-07T18:06:40.820Z,13.52
2019-04-07T18:09:23.406Z,13.53
2019-04-07T18:12:12.841Z,13.53
2019-04-07T18:15:03.624Z,13.50
2019-04-07T18:17:51.700Z,13.49
2019-04-07T18:20:48.623Z,13.50
2019-04-07T18:23:38.702Z,13.50
2019-04-07T18:26:45.245Z,13.52
2019-04-07T18:29:52.833Z,13.53
2019-04-07T18:32:46.397Z,13.54
2019-04-07T18:35:34.798Z,13.50
2019-04-07T18:38:21.788Z,13.47
2019-04-07T18:41:10.726Z,13.43
2019-04-07T18:44:04.630Z,13.43
2019-04-07T18:46:53.299Z,13.42
2019-04-07T18:49:52.412Z,13.43
2019-04-07T18:52:54.321Z,13.44
2019-04-07T18:56:01.477Z,13.45
2019-04-07T18:58:47.084Z,13.41
2019-04-07T19:01:41.345Z,13.40
2019-04-07T19:04:17.357Z,13.41
2019-04-07T19:06:55.846Z,13.40
2019-04-07T19:09:49.578Z,13.38
2019-04-07T19:12:47.703Z,13.36
2019-04-07T19:15:40.033Z,13.36
2019-04-07T19:18:28.317Z,13.37
2019-04-07T19:21:14.851Z,13.37
2019-04-07T19:24:02.511Z,13.38
2019-04-07T19:26:52.248Z,13.34
2019-04-07T19:29:26.704Z,13.30
2019-04-07T19:32:27.157Z,13.30
2019-04-07T19:35:15.258Z,13.29
2019-04-07T19:38:03.081Z,13.29
2019-04-07T19:40:49.191Z,13.31
2019-04-07T19:43:44.444Z,13.28
2019-04-07T19:46:31.549Z,13.26
2019-04-07T19:49:25.830Z,13.23
2019-04-07T19:52:12.680Z,13.22
2019-04-07T19:54:53.628Z,13.18
2019-04-07T19:57:46.904Z,13.15
2019-04-07T20:00:41.571Z,13.11
2019-04-07T20:03:37.770Z,13.06
2019-04-07T20:06:13.228Z,13.01
2019-04-07T20:09:12.554Z,12.97
2019-04-07T20:11:55.050Z,12.96
2019-04-07T20:14:52.719Z,12.92
2019-04-07T20:17:34.937Z,12.91
2019-04-07T20:20:12.583Z,12.90
2019-04-07T20:23:16.009Z,12.89
2019-04-07T20:26:01.687Z,12.88
2019-04-07T20:28:41.208Z,12.89
2019-04-07T20:31:19.439Z,12.90
2019-04-07T20:34:06.219Z,12.90
2019-04-07T20:36:57.704Z,12.91
2019-04-07T20:39:51.677Z,12.92
2019-04-07T20:42:36.755Z,12.94
2019-04-07T20:45:24.090Z,12.94
2019-04-07T20:48:15.784Z,12.90
2019-04-07T20:51:09.241Z,12.84
2019-04-07T20:54:03.419Z,12.82
2019-04-07T20:56:48.422Z,12.81
2019-04-07T20:59:46.963Z,12.79
2019-04-07T21:02:23.638Z,12.77
2019-04-07T21:05:02.940Z,12.73
2019-04-07T21:07:54.826Z,12.66
2019-04-07T21:10:45.652Z,12.63
2019-04-07T21:13:39.533Z,12.62
2019-04-07T21:16:33.089Z,12.61
2019-04-07T21:19:23.723Z,12.59
2019-04-07T21:22:14.127Z,12.60
2019-04-07T21:24:58.678Z,12.60
2019-04-07T21:27:38.776Z,12.63
2019-04-07T21:30:27.011Z,12.61
2019-04-07T21:33:09.662Z,12.62
2019-04-07T21:35:44.779Z,12.60
2019-04-07T21:38:41.356Z,12.57
2019-04-07T21:41:29.066Z,12.57
2019-04-07T21:44:32.324Z,12.55
2019-04-07T21:47:38.580Z,12.52
2019-04-07T21:50:38.420Z,12.50
2019-04-07T21:53:12.605Z,12.47
2019-04-07T21:55:55.722Z,12.46
2019-04-07T21:58:42.463Z,12.47
2019-04-07T22:01:16.665Z,12.47
2019-04-07T22:03:50.408Z,12.46
2019-04-07T22:06:40.618Z,12.44
2019-04-07T22:09:15.907Z,12.44
2019-04-07T22:11:45.067Z,12.46
2019-04-07T22:14:14.637Z,12.43
2019-04-07T22:16:42.878Z,12.41
2019-04-07T22:19:14.740Z,12.38
2019-04-07T22:21:41.234Z,12.37
2019-04-07T22:24:09.563Z,12.38
2019-04-07T22:26:37.648Z,12.37
2019-04-07T22:29:05.709Z,12.39
2019-04-07T22:31:45.572Z,12.38
2019-04-07T22:34:14.842Z,12.38
2019-04-07T22:36:45.458Z,12.36
2019-04-07T22:39:14.098Z,12.38
2019-04-07T22:41:44.124Z,12.35
2019-04-07T22:44:12.252Z,12.32
2019-04-07T22:46:40.295Z,12.29
2019-04-07T22:49:09.300Z,12.28
2019-04-07T22:51:38.158Z,12.27
2019-04-07T22:54:06.258Z,12.25
2019-04-07T22:56:36.671Z,12.23
2019-04-07T22:59:04.529Z,12.23
2019-04-07T23:01:33.359Z,12.20
2019-04-07T23:04:01.584Z,12.20
2019-04-07T23:06:29.623Z,12.19
2019-04-07T23:08:57.664Z,12.20
2019-04-07T23:11:26.162Z,12.23
2019-04-07T23:13:54.237Z,12.25
2019-04-07T23:16:22.273Z,12.26
2019-04-07T23:18:50.627Z,12.28
2019-04-07T23:21:19.208Z,12.28
2019-04-07T23:23:48.249Z,12.26
2019-04-07T23:26:16.374Z,12.26
2019-04-07T23:28:44.451Z,12.24
2019-04-07T23:31:13.664Z,12.24
2019-04-07T23:33:42.202Z,12.25
2019-04-07T23:36:10.226Z,12.26
2019-04-07T23:38:39.003Z,12.29
2019-04-07T23:41:07.159Z,12.29
2019-04-07T23:43:35.558Z,12.30
2019-04-07T23:46:05.000Z,12.30
2019-04-07T23:48:33.172Z,12.32
2019-04-07T23:51:01.684Z,12.32
2019-04-07T23:54:12.528Z,12.33
2019-04-07T23:56:43.643Z,12.33
2019-04-07T23:59:12.186Z,12.32
